Airfield :
LOGIN :

Register | Disclaimer

   EN    FR    IT 

 










Legend :    VFR   Marginal VFR   IFR   Intensive IFR   Very Intensive IFR
Visi :
Ceiling :
>= 8 km
>= 3000ft
5 to 8 km
1000 to 3000 ft
1500m to 5 km
500 to 1000 ft
800 to 1500m
200 to 500 ft
< 800m
< 200 ft
Symbols :   Thunderstorms  Fog  Heavy snow  Heavy precipitations  Wind > 20 kt
SIGMETs :     Misc.  Thunderstorms  Icing  Turbulence  Mountain Waves  Volcanic Ashes







- Airport Elevation : 424 ft
- IATA code : QGY


LHPR - Györ Per

CURRENT METAR :
  • 141445Z 29017KT CAVOK 24/17 Q1012 RMK BLU

EXPIRED METARs :
  • 141415Z 30017KT CAVOK 25/17 Q1011 RMK BLU
  • 141345Z 31016KT CAVOK 25/17 Q1011 RMK BLU
  • 141315Z 31013KT 280V340 9999 BKN046 26/17 Q1011 RMK BLU
  • 141245Z 31012KT 9999 BKN046 BKN050 27/16 Q1011 RMK BLU
  • 141215Z 32009KT 280V020 9999 SCT040 BKN046 28/17 Q1011 RMK BLU

TAF TAF LHPR
Valid from the 14 at 15:00 until the 15 at 00:00 UTC


141415Z 1415/1424 32015KT 9999 BKN045 BKN070
TEMPO 1415/1418 VRB20G34KT 4000 TSRA SCT040CB BKN050 OVC120
TEMPO 1418/1421 8000 -RA -SHRA SCT040TCU BKN050 OVC120
No reported NOTAMs for that airfield.
1 SIGMET reported for the Budapest FIR (LHCC) :
 
Squall lined thunderstorms
LHCC SIGMET 06 VALID 141350/141550 LHBP
LHCC BUDAPEST FIR SQL TS OBS WI N4706 E01807 - N4545 E01808 - N4558 E01710 - N4708 E01712 - N4706 E01807 TOP FL400 MOV NE NC=



MET'MAP, your aeronautical weather chart ! - Copyright ORBIFLY December 2007 - Disclaimer

ORBIFLY MET'MAP TEAM :

Programming & Development : Alexandra Zaïnal
Concept & Development : Baudouin d'Aumeries
Co-Development & Prog : Marc-Olivier Méhu
Technical & hardware support : Manuel Goepfert

Contact : metmap@orbifly.com




SOURCES & CREDITS :

   NOAA